sensor_id;sensor_type;location;lat;lon;timestamp;pressure;altitude;pressure_sealevel;temperature
57468;BMP280;43311;51.196;7.518;2023-12-20T07:10:14;96769.47;;;4.33
57468;BMP280;43311;51.196;7.518;2023-12-20T07:12:39;96764.59;;;4.25
57468;BMP280;43311;51.196;7.518;2023-12-20T07:15:05;96767.63;;;4.34
57468;BMP280;43311;51.196;7.518;2023-12-20T07:17:32;96739.66;;;4.10
57468;BMP280;43311;51.196;7.518;2023-12-20T07:19:58;96776.16;;;4.34
57468;BMP280;43311;51.196;7.518;2023-12-20T07:22:24;96785.44;;;4.35
57468;BMP280;43311;51.196;7.518;2023-12-20T07:24:49;96753.41;;;4.17
57468;BMP280;43311;51.196;7.518;2023-12-20T07:27:17;96773.53;;;4.31
57468;BMP280;43311;51.196;7.518;2023-12-20T07:29:43;96786.56;;;4.38
57468;BMP280;43311;51.196;7.518;2023-12-20T07:32:08;96789.19;;;4.41
57468;BMP280;43311;51.196;7.518;2023-12-20T07:34:34;96777.63;;;4.32
57468;BMP280;43311;51.196;7.518;2023-12-20T07:36:59;96782.47;;;4.37
57468;BMP280;43311;51.196;7.518;2023-12-20T07:39:24;96785.41;;;4.32
57468;BMP280;43311;51.196;7.518;2023-12-20T07:41:50;96754.91;;;4.18
57468;BMP280;43311;51.196;7.518;2023-12-20T07:44:15;96786.16;;;4.36
57468;BMP280;43311;51.196;7.518;2023-12-20T07:46:41;96764.16;;;4.16
57468;BMP280;43311;51.196;7.518;2023-12-20T07:49:06;96797.28;;;4.33
57468;BMP280;43311;51.196;7.518;2023-12-20T07:51:33;96780.88;;;4.22
57468;BMP280;43311;51.196;7.518;2023-12-20T07:53:59;96802.13;;;4.38
57468;BMP280;43311;51.196;7.518;2023-12-20T07:56:24;96805.81;;;4.37
57468;BMP280;43311;51.196;7.518;2023-12-20T07:58:50;96779.72;;;4.16
57468;BMP280;43311;51.196;7.518;2023-12-20T08:01:15;96799.50;;;4.34
57468;BMP280;43311;51.196;7.518;2023-12-20T08:03:41;96794.75;;;4.40
57468;BMP280;43311;51.196;7.518;2023-12-20T08:06:06;96803.25;;;4.40
57468;BMP280;43311;51.196;7.518;2023-12-20T08:08:32;96789.88;;;4.35
57468;BMP280;43311;51.196;7.518;2023-12-20T08:11:02;96773.88;;;4.26
57468;BMP280;43311;51.196;7.518;2023-12-20T08:13:42;96754.09;;;4.07
57468;BMP280;43311;51.196;7.518;2023-12-20T08:16:07;96755.28;;;4.17
57468;BMP280;43311;51.196;7.518;2023-12-20T08:18:33;96729.22;;;4.03
57468;BMP280;43311;51.196;7.518;2023-12-20T08:21:00;96712.84;;;3.92
57468;BMP280;43311;51.196;7.518;2023-12-20T08:23:52;96752.72;;;4.20
57468;BMP280;43311;51.196;7.518;2023-12-20T08:26:19;96754.16;;;4.18
57468;BMP280;43311;51.196;7.518;2023-12-20T08:28:50;96780.94;;;4.29
57468;BMP280;43311;51.196;7.518;2023-12-20T08:31:18;96747.47;;;4.13
57468;BMP280;43311;51.196;7.518;2023-12-20T08:33:46;96745.22;;;4.08
57468;BMP280;43311;51.196;7.518;2023-12-20T08:36:15;96788.06;;;4.42
57468;BMP280;43311;51.196;7.518;2023-12-20T08:38:44;96784.38;;;4.47
57468;BMP280;43311;51.196;7.518;2023-12-20T08:41:10;96768.72;;;4.33
57468;BMP280;43311;51.196;7.518;2023-12-20T08:43:36;96786.28;;;4.50
57468;BMP280;43311;51.196;7.518;2023-12-20T08:46:04;96779.53;;;4.42
57468;BMP280;43311;51.196;7.518;2023-12-20T08:48:30;96725.47;;;3.97
57468;BMP280;43311;51.196;7.518;2023-12-20T08:50:56;96781.72;;;4.33
57468;BMP280;43311;51.196;7.518;2023-12-20T08:53:33;96795.91;;;4.46
57468;BMP280;43311;51.196;7.518;2023-12-20T08:56:00;96759.78;;;4.27
57468;BMP280;43311;51.196;7.518;2023-12-20T08:58:27;96796.19;;;4.41
57468;BMP280;43311;51.196;7.518;2023-12-20T09:04:16;96726.63;;;4.03
57468;BMP280;43311;51.196;7.518;2023-12-20T09:06:47;96762.00;;;4.25
57468;BMP280;43311;51.196;7.518;2023-12-20T09:09:14;96766.09;;;4.29
57468;BMP280;43311;51.196;7.518;2023-12-20T09:11:41;96734.81;;;4.05
57468;BMP280;43311;51.196;7.518;2023-12-20T09:17:28;96802.56;;;4.47
57468;BMP280;43311;51.196;7.518;2023-12-20T09:20:04;96730.38;;;4.09
57468;BMP280;43311;51.196;7.518;2023-12-20T09:22:34;96762.78;;;4.29
57468;BMP280;43311;51.196;7.518;2023-12-20T09:25:00;96736.38;;;4.20
57468;BMP280;43311;51.196;7.518;2023-12-20T09:27:27;96769.84;;;4.35
57468;BMP280;43311;51.196;7.518;2023-12-20T09:29:53;96751.28;;;4.26
57468;BMP280;43311;51.196;7.518;2023-12-20T09:32:19;96701.72;;;3.92
57468;BMP280;43311;51.196;7.518;2023-12-20T09:34:55;96703.63;;;3.98
57468;BMP280;43311;51.196;7.518;2023-12-20T09:37:22;96707.00;;;4.05
57468;BMP280;43311;51.196;7.518;2023-12-20T09:39:48;96711.06;;;4.03
57468;BMP280;43311;51.196;7.518;2023-12-20T09:42:19;96719.59;;;4.07
57468;BMP280;43311;51.196;7.518;2023-12-20T09:44:46;96777.72;;;4.46
57468;BMP280;43311;51.196;7.518;2023-12-20T09:47:15;96775.84;;;4.43
57468;BMP280;43311;51.196;7.518;2023-12-20T09:49:43;96723.28;;;3.99
57468;BMP280;43311;51.196;7.518;2023-12-20T09:52:11;96743.09;;;4.24
57468;BMP280;43311;51.196;7.518;2023-12-20T09:54:38;96729.31;;;4.13
57468;BMP280;43311;51.196;7.518;2023-12-20T09:57:04;96704.41;;;4.05
57468;BMP280;43311;51.196;7.518;2023-12-20T09:59:30;96698.44;;;3.98
57468;BMP280;43311;51.196;7.518;2023-12-20T10:01:56;96703.34;;;4.13
57468;BMP280;43311;51.196;7.518;2023-12-20T10:04:23;96742.09;;;4.43
57468;BMP280;43311;51.196;7.518;2023-12-20T10:06:51;96708.91;;;4.12
57468;BMP280;43311;51.196;7.518;2023-12-20T10:09:17;96741.69;;;4.41
57468;BMP280;43311;51.196;7.518;2023-12-20T10:11:44;96713.06;;;4.23
57468;BMP280;43311;51.196;7.518;2023-12-20T10:14:10;96728.25;;;4.25
57468;BMP280;43311;51.196;7.518;2023-12-20T10:16:37;96729.78;;;4.29
57468;BMP280;43311;51.196;7.518;2023-12-20T10:19:04;96749.88;;;4.43
57468;BMP280;43311;51.196;7.518;2023-12-20T10:21:30;96762.56;;;4.55
57468;BMP280;43311;51.196;7.518;2023-12-20T10:23:57;96730.19;;;4.35
57468;BMP280;43311;51.196;7.518;2023-12-20T10:26:26;96745.06;;;4.45
57468;BMP280;43311;51.196;7.518;2023-12-20T10:28:55;96773.00;;;4.62
57468;BMP280;43311;51.196;7.518;2023-12-20T10:31:32;96740.94;;;4.37
57468;BMP280;43311;51.196;7.518;2023-12-20T10:33:59;96696.69;;;4.16
57468;BMP280;43311;51.196;7.518;2023-12-20T10:36:32;96731.34;;;4.48
57468;BMP280;43311;51.196;7.518;2023-12-20T10:38:59;96721.66;;;4.38
57468;BMP280;43311;51.196;7.518;2023-12-20T10:41:30;96753.69;;;4.59
57468;BMP280;43311;51.196;7.518;2023-12-20T10:43:59;96750.69;;;4.57
57468;BMP280;43311;51.196;7.518;2023-12-20T10:46:26;96726.13;;;4.41
57468;BMP280;43311;51.196;7.518;2023-12-20T10:48:56;96710.88;;;4.29
57468;BMP280;43311;51.196;7.518;2023-12-20T10:51:22;96748.50;;;4.59
57468;BMP280;43311;51.196;7.518;2023-12-20T10:53:50;96698.63;;;4.29
57468;BMP280;43311;51.196;7.518;2023-12-20T10:56:17;96735.88;;;4.54
57468;BMP280;43311;51.196;7.518;2023-12-20T10:58:49;96706.06;;;4.34
57468;BMP280;43311;51.196;7.518;2023-12-20T11:01:16;96735.53;;;4.63
57468;BMP280;43311;51.196;7.518;2023-12-20T11:03:52;96715.81;;;4.51
57468;BMP280;43311;51.196;7.518;2023-12-20T11:06:45;96695.31;;;4.36
57468;BMP280;43311;51.196;7.518;2023-12-20T11:14:43;96741.03;;;4.58
57468;BMP280;43311;51.196;7.518;2023-12-20T11:17:11;96698.31;;;4.38
57468;BMP280;43311;51.196;7.518;2023-12-20T11:22:27;96706.09;;;4.38
57468;BMP280;43311;51.196;7.518;2023-12-20T11:24:53;96718.78;;;4.50
57468;BMP280;43311;51.196;7.518;2023-12-20T11:27:21;96743.31;;;4.59
57468;BMP280;43311;51.196;7.518;2023-12-20T11:29:55;96716.53;;;4.45
57468;BMP280;43311;51.196;7.518;2023-12-20T11:37:35;96711.72;;;4.54
57468;BMP280;43311;51.196;7.518;2023-12-20T11:40:02;96731.81;;;4.64
57468;BMP280;43311;51.196;7.518;2023-12-20T11:42:39;96703.94;;;4.54
57468;BMP280;43311;51.196;7.518;2023-12-20T11:45:08;96689.06;;;4.44
57468;BMP280;43311;51.196;7.518;2023-12-20T11:47:48;96729.25;;;4.71
57468;BMP280;43311;51.196;7.518;2023-12-20T11:50:16;96688.31;;;4.47
57468;BMP280;43311;51.196;7.518;2023-12-20T11:52:41;96715.16;;;4.68
57468;BMP280;43311;51.196;7.518;2023-12-20T11:55:07;96705.13;;;4.67
57468;BMP280;43311;51.196;7.518;2023-12-20T11:57:33;96720.31;;;4.65
57468;BMP280;43311;51.196;7.518;2023-12-20T11:59:59;96717.72;;;4.65
57468;BMP280;43311;51.196;7.518;2023-12-20T12:02:25;96660.81;;;4.32
57468;BMP280;43311;51.196;7.518;2023-12-20T12:04:50;96672.75;;;4.47
57468;BMP280;43311;51.196;7.518;2023-12-20T12:07:16;96691.38;;;4.59
57468;BMP280;43311;51.196;7.518;2023-12-20T12:09:43;96673.53;;;4.51
57468;BMP280;43311;51.196;7.518;2023-12-20T12:12:08;96700.72;;;4.77
57468;BMP280;43311;51.196;7.518;2023-12-20T12:14:34;96704.47;;;4.83
57468;BMP280;43311;51.196;7.518;2023-12-20T12:17:02;96704.03;;;4.74
57468;BMP280;43311;51.196;7.518;2023-12-20T12:19:29;96667.59;;;4.54
57468;BMP280;43311;51.196;7.518;2023-12-20T12:22:13;96659.06;;;4.50
57468;BMP280;43311;51.196;7.518;2023-12-20T12:24:43;96676.53;;;4.60
57468;BMP280;43311;51.196;7.518;2023-12-20T12:27:10;96677.34;;;4.77
57468;BMP280;43311;51.196;7.518;2023-12-20T12:29:41;96652.78;;;4.58
57468;BMP280;43311;51.196;7.518;2023-12-20T12:32:16;96675.47;;;4.71
57468;BMP280;43311;51.196;7.518;2023-12-20T12:34:44;96634.63;;;4.54
57468;BMP280;43311;51.196;7.518;2023-12-20T12:37:10;96640.94;;;4.57
57468;BMP280;43311;51.196;7.518;2023-12-20T12:39:35;96660.63;;;4.68
57468;BMP280;43311;51.196;7.518;2023-12-20T12:42:08;96640.94;;;4.57
57468;BMP280;43311;51.196;7.518;2023-12-20T12:44:34;96633.47;;;4.48
57468;BMP280;43311;51.196;7.518;2023-12-20T12:47:06;96615.63;;;4.40
57468;BMP280;43311;51.196;7.518;2023-12-20T12:49:44;96592.56;;;4.21
57468;BMP280;43311;51.196;7.518;2023-12-20T12:52:20;96611.19;;;4.40
57468;BMP280;43311;51.196;7.518;2023-12-20T12:54:45;96629.81;;;4.63
57468;BMP280;43311;51.196;7.518;2023-12-20T12:57:13;96629.06;;;4.59
57468;BMP280;43311;51.196;7.518;2023-12-20T12:59:39;96633.53;;;4.66
57468;BMP280;43311;51.196;7.518;2023-12-20T13:02:04;96630.94;;;4.66
57468;BMP280;43311;51.196;7.518;2023-12-20T13:04:29;96652.47;;;4.76
57468;BMP280;43311;51.196;7.518;2023-12-20T13:06:55;96663.97;;;4.75
57468;BMP280;43311;51.196;7.518;2023-12-20T13:09:23;96614.16;;;4.49
57468;BMP280;43311;51.196;7.518;2023-12-20T13:11:48;96649.13;;;4.72
57468;BMP280;43311;51.196;7.518;2023-12-20T13:14:13;96652.47;;;4.76
57468;BMP280;43311;51.196;7.518;2023-12-20T13:16:43;96630.91;;;4.62
57468;BMP280;43311;51.196;7.518;2023-12-20T13:19:11;96623.09;;;4.59
57468;BMP280;43311;51.196;7.518;2023-12-20T13:21:36;96606.44;;;4.67
57468;BMP280;43311;51.196;7.518;2023-12-20T13:24:02;96628.00;;;4.81
57468;BMP280;43311;51.196;7.518;2023-12-20T13:26:28;96590.47;;;4.58
57468;BMP280;43311;51.196;7.518;2023-12-20T13:28:54;96633.59;;;4.79
57468;BMP280;43311;51.196;7.518;2023-12-20T13:31:20;96587.88;;;4.58
57468;BMP280;43311;51.196;7.518;2023-12-20T13:33:46;96598.69;;;4.77
57468;BMP280;43311;51.196;7.518;2023-12-20T13:36:12;96608.75;;;4.85
57468;BMP280;43311;51.196;7.518;2023-12-20T13:38:37;96603.19;;;4.90
57468;BMP280;43311;51.196;7.518;2023-12-20T13:41:03;96607.63;;;4.97
57468;BMP280;43311;51.196;7.518;2023-12-20T13:43:30;96581.59;;;4.69
57468;BMP280;43311;51.196;7.518;2023-12-20T13:45:58;96581.63;;;4.83
57468;BMP280;43311;51.196;7.518;2023-12-20T13:48:24;96548.59;;;4.63
57468;BMP280;43311;51.196;7.518;2023-12-20T13:50:49;96555.63;;;4.69
57468;BMP280;43311;51.196;7.518;2023-12-20T13:53:15;96585.72;;;4.87
57468;BMP280;43311;51.196;7.518;2023-12-20T13:55:50;96553.41;;;4.68
57468;BMP280;43311;51.196;7.518;2023-12-20T13:58:19;96598.34;;;4.92
57468;BMP280;43311;51.196;7.518;2023-12-20T14:00:45;96596.50;;;4.96
57468;BMP280;43311;51.196;7.518;2023-12-20T14:03:11;96580.16;;;4.82
57468;BMP280;43311;51.196;7.518;2023-12-20T14:05:44;96537.81;;;4.61
57468;BMP280;43311;51.196;7.518;2023-12-20T14:08:09;96514.41;;;4.47
57468;BMP280;43311;51.196;7.518;2023-12-20T14:10:37;96543.38;;;4.73
57468;BMP280;43311;51.196;7.518;2023-12-20T14:13:04;96529.66;;;4.66
57468;BMP280;43311;51.196;7.518;2023-12-20T14:15:30;96510.34;;;4.46
57468;BMP280;43311;51.196;7.518;2023-12-20T14:18:01;96545.28;;;4.79
57468;BMP280;43311;51.196;7.518;2023-12-20T14:20:26;96555.66;;;4.79
57468;BMP280;43311;51.196;7.518;2023-12-20T14:22:52;96569.41;;;4.90
57468;BMP280;43311;51.196;7.518;2023-12-20T14:25:20;96551.56;;;4.78
57468;BMP280;43311;51.196;7.518;2023-12-20T14:27:45;96545.63;;;4.78
57468;BMP280;43311;51.196;7.518;2023-12-20T14:30:12;96578.31;;;4.96
57468;BMP280;43311;51.196;7.518;2023-12-20T14:32:39;96557.16;;;4.87
57468;BMP280;43311;51.196;7.518;2023-12-20T14:35:05;96549.72;;;4.82
57468;BMP280;43311;51.196;7.518;2023-12-20T14:37:31;96546.75;;;4.77
57468;BMP280;43311;51.196;7.518;2023-12-20T14:39:57;96570.91;;;5.05
57468;BMP280;43311;51.196;7.518;2023-12-20T14:42:22;96560.13;;;5.00
57468;BMP280;43311;51.196;7.518;2023-12-20T14:44:48;96543.41;;;4.83
57468;BMP280;43311;51.196;7.518;2023-12-20T14:47:13;96568.28;;;4.98
57468;BMP280;43311;51.196;7.518;2023-12-20T14:49:41;96563.09;;;4.95
57468;BMP280;43311;51.196;7.518;2023-12-20T14:52:08;96575.69;;;5.00
57468;BMP280;43311;51.196;7.518;2023-12-20T14:54:37;96577.94;;;4.98
57468;BMP280;43311;51.196;7.518;2023-12-20T14:57:02;96578.31;;;4.96
57468;BMP280;43311;51.196;7.518;2023-12-20T14:59:28;96575.69;;;5.00
57468;BMP280;43311;51.196;7.518;2023-12-20T15:01:54;96587.22;;;5.09
57468;BMP280;43311;51.196;7.518;2023-12-20T15:04:20;96598.75;;;5.08
57468;BMP280;43311;51.196;7.518;2023-12-20T15:06:51;96576.06;;;4.98
57468;BMP280;43311;51.196;7.518;2023-12-20T15:09:17;96527.44;;;4.74
57468;BMP280;43311;51.196;7.518;2023-12-20T15:11:42;96576.09;;;5.05
57468;BMP280;43311;51.196;7.518;2023-12-20T15:14:08;96574.63;;;5.11
57468;BMP280;43311;51.196;7.518;2023-12-20T15:16:35;96574.22;;;5.09
57468;BMP280;43311;51.196;7.518;2023-12-20T15:19:00;96581.66;;;5.14
57468;BMP280;43311;51.196;7.518;2023-12-20T15:21:26;96579.44;;;5.09
57468;BMP280;43311;51.196;7.518;2023-12-20T15:23:57;96526.72;;;4.81
57468;BMP280;43311;51.196;7.518;2023-12-20T15:26:34;96575.00;;;5.13
57468;BMP280;43311;51.196;7.518;2023-12-20T15:29:00;96579.06;;;5.21
57468;BMP280;43311;51.196;7.518;2023-12-20T15:31:29;96583.91;;;5.19
57468;BMP280;43311;51.196;7.518;2023-12-20T15:33:54;96550.47;;;5.00
57468;BMP280;43311;51.196;7.518;2023-12-20T15:36:20;96582.41;;;5.18
57468;BMP280;43311;51.196;7.518;2023-12-20T15:38:46;96541.59;;;5.01
57468;BMP280;43311;51.196;7.518;2023-12-20T15:41:22;96565.34;;;5.17
57468;BMP280;43311;51.196;7.518;2023-12-20T15:43:49;96556.81;;;5.13
57468;BMP280;43311;51.196;7.518;2023-12-20T15:46:14;96554.56;;;5.15
57468;BMP280;43311;51.196;7.518;2023-12-20T15:48:40;96567.22;;;5.17
57468;BMP280;43311;51.196;7.518;2023-12-20T15:51:10;96549.00;;;5.13
57468;BMP280;43311;51.196;7.518;2023-12-20T15:53:36;96559.38;;;5.20
57468;BMP280;43311;51.196;7.518;2023-12-20T15:56:02;96564.59;;;5.17
57468;BMP280;43311;51.196;7.518;2023-12-20T15:58:31;96535.28;;;5.02
57468;BMP280;43311;51.196;7.518;2023-12-20T16:00:56;96570.53;;;5.24
57468;BMP280;43311;51.196;7.518;2023-12-20T16:03:22;96544.19;;;5.08
57468;BMP280;43311;51.196;7.518;2023-12-20T16:05:47;96573.53;;;5.19
57468;BMP280;43311;51.196;7.518;2023-12-20T16:08:13;96552.72;;;5.09
57468;BMP280;43311;51.196;7.518;2023-12-20T16:10:39;96553.47;;;5.20
57468;BMP280;43311;51.196;7.518;2023-12-20T16:13:05;96559.41;;;5.34
57468;BMP280;43311;51.196;7.518;2023-12-20T16:15:31;96558.66;;;5.30
57468;BMP280;43311;51.196;7.518;2023-12-20T16:17:56;96543.81;;;5.31
57468;BMP280;43311;51.196;7.518;2023-12-20T16:20:22;96504.84;;;5.13
57468;BMP280;43311;51.196;7.518;2023-12-20T16:22:48;96540.09;;;5.32
57468;BMP280;43311;51.196;7.518;2023-12-20T16:25:13;96526.72;;;5.30
57468;BMP280;43311;51.196;7.518;2023-12-20T16:27:39;96550.84;;;5.37
57468;BMP280;43311;51.196;7.518;2023-12-20T16:30:05;96532.66;;;5.30
57468;BMP280;43311;51.196;7.518;2023-12-20T16:32:32;96542.31;;;5.37
57468;BMP280;43311;51.196;7.518;2023-12-20T16:34:57;96540.81;;;5.39
57468;BMP280;43311;51.196;7.518;2023-12-20T16:37:23;96530.81;;;5.41
57468;BMP280;43311;51.196;7.518;2023-12-20T16:39:49;96534.88;;;5.35
57468;BMP280;43311;51.196;7.518;2023-12-20T16:42:14;96534.88;;;5.39
57468;BMP280;43311;51.196;7.518;2023-12-20T16:44:40;96530.41;;;5.32
57468;BMP280;43311;51.196;7.518;2023-12-20T16:47:05;96540.81;;;5.39
57468;BMP280;43311;51.196;7.518;2023-12-20T16:49:31;96541.19;;;5.41
57468;BMP280;43311;51.196;7.518;2023-12-20T16:51:57;96538.59;;;5.41
57468;BMP280;43311;51.196;7.518;2023-12-20T16:54:22;96535.63;;;5.32
57468;BMP280;43311;51.196;7.518;2023-12-20T16:56:47;96549.00;;;5.41
57468;BMP280;43311;51.196;7.518;2023-12-20T16:59:13;96548.25;;;5.37
57468;BMP280;43311;51.196;7.518;2023-12-20T17:01:38;96512.59;;;5.24
57468;BMP280;43311;51.196;7.518;2023-12-20T17:04:08;96545.28;;;5.35
57468;BMP280;43311;51.196;7.518;2023-12-20T17:06:33;96533.03;;;5.36
57468;BMP280;43311;51.196;7.518;2023-12-20T17:08:59;96488.88;;;5.11
57468;BMP280;43311;51.196;7.518;2023-12-20T17:11:24;96533.75;;;5.53
57468;BMP280;43311;51.196;7.518;2023-12-20T17:13:50;96537.06;;;5.54
57468;BMP280;43311;51.196;7.518;2023-12-20T17:16:15;96534.47;;;5.54
57468;BMP280;43311;51.196;7.518;2023-12-20T17:18:41;96524.84;;;5.54
57468;BMP280;43311;51.196;7.518;2023-12-20T17:21:06;96498.13;;;5.23
57468;BMP280;43311;51.196;7.518;2023-12-20T17:23:33;96529.66;;;5.49
57468;BMP280;43311;51.196;7.518;2023-12-20T17:25:59;96508.50;;;5.37
57468;BMP280;43311;51.196;7.518;2023-12-20T17:28:24;96516.31;;;5.47
57468;BMP280;43311;51.196;7.518;2023-12-20T17:30:49;96471.03;;;5.27
57468;BMP280;43311;51.196;7.518;2023-12-20T17:33:15;96512.94;;;5.60
57468;BMP280;43311;51.196;7.518;2023-12-20T17:35:41;96508.13;;;5.55
57468;BMP280;43311;51.196;7.518;2023-12-20T17:38:06;96488.06;;;5.45
57468;BMP280;43311;51.196;7.518;2023-12-20T17:40:32;96496.97;;;5.51
57468;BMP280;43311;51.196;7.518;2023-12-20T17:42:57;96499.94;;;5.50
57468;BMP280;43311;51.196;7.518;2023-12-20T17:45:23;96479.91;;;5.47
57468;BMP280;43311;51.196;7.518;2023-12-20T17:47:48;96467.25;;;5.45
57468;BMP280;43311;51.196;7.518;2023-12-20T17:50:14;96509.94;;;5.69
57468;BMP280;43311;51.196;7.518;2023-12-20T17:52:40;96461.34;;;5.41
57468;BMP280;43311;51.196;7.518;2023-12-20T17:55:06;96482.84;;;5.52
57468;BMP280;43311;51.196;7.518;2023-12-20T17:57:32;96450.94;;;5.38
57468;BMP280;43311;51.196;7.518;2023-12-20T18:00:11;96458.41;;;5.36
57468;BMP280;43311;51.196;7.518;2023-12-20T18:02:37;96453.91;;;5.40
57468;BMP280;43311;51.196;7.518;2023-12-20T18:05:03;96470.94;;;5.58
57468;BMP280;43311;51.196;7.518;2023-12-20T18:07:28;96457.56;;;5.56
57468;BMP280;43311;51.196;7.518;2023-12-20T18:09:56;96461.31;;;5.59
57468;BMP280;43311;51.196;7.518;2023-12-20T18:12:22;96449.41;;;5.58
57468;BMP280;43311;51.196;7.518;2023-12-20T18:14:47;96443.13;;;5.55
57468;BMP280;43311;51.196;7.518;2023-12-20T18:17:13;96442.34;;;5.62
57468;BMP280;43311;51.196;7.518;2023-12-20T18:19:39;96451.63;;;5.66
57468;BMP280;43311;51.196;7.518;2023-12-20T18:22:04;96426.78;;;5.48
57468;BMP280;43311;51.196;7.518;2023-12-20T18:24:30;96406.41;;;5.36
57468;BMP280;43311;51.196;7.518;2023-12-20T18:26:55;96413.06;;;5.40
57468;BMP280;43311;51.196;7.518;2023-12-20T18:29:21;96407.44;;;5.52
57468;BMP280;43311;51.196;7.518;2023-12-20T18:31:46;96435.25;;;5.76
57468;BMP280;43311;51.196;7.518;2023-12-20T18:34:12;96442.66;;;5.74
57468;BMP280;43311;51.196;7.518;2023-12-20T18:36:37;96435.97;;;5.73
57468;BMP280;43311;51.196;7.518;2023-12-20T18:39:03;96368.91;;;5.30
57468;BMP280;43311;51.196;7.518;2023-12-20T18:41:29;96366.66;;;5.39
57468;BMP280;43311;51.196;7.518;2023-12-20T18:43:55;96428.53;;;5.72
57468;BMP280;43311;51.196;7.518;2023-12-20T18:46:21;96431.16;;;5.72
57468;BMP280;43311;51.196;7.518;2023-12-20T18:48:47;96401.50;;;5.59
57468;BMP280;43311;51.196;7.518;2023-12-20T18:51:13;96435.22;;;5.73
57468;BMP280;43311;51.196;7.518;2023-12-20T18:53:38;96424.84;;;5.80
57468;BMP280;43311;51.196;7.518;2023-12-20T18:56:04;96428.16;;;5.84
57468;BMP280;43311;51.196;7.518;2023-12-20T18:58:30;96399.22;;;5.78
57468;BMP280;43311;51.196;7.518;2023-12-20T19:00:56;96413.69;;;5.79
57468;BMP280;43311;51.196;7.518;2023-12-20T19:03:23;96393.63;;;5.80
57468;BMP280;43311;51.196;7.518;2023-12-20T19:05:48;96389.84;;;5.88
57468;BMP280;43311;51.196;7.518;2023-12-20T19:08:14;96398.06;;;5.83
57468;BMP280;43311;51.196;7.518;2023-12-20T19:10:39;96394.34;;;5.80
57468;BMP280;43311;51.196;7.518;2023-12-20T19:13:05;96396.22;;;5.83
57468;BMP280;43311;51.196;7.518;2023-12-20T19:15:30;96391.00;;;5.87
57468;BMP280;43311;51.196;7.518;2023-12-20T19:17:56;96392.91;;;5.76
57468;BMP280;43311;51.196;7.518;2023-12-20T19:20:22;96390.63;;;5.81
57468;BMP280;43311;51.196;7.518;2023-12-20T19:22:47;96393.94;;;5.89
57468;BMP280;43311;51.196;7.518;2023-12-20T19:25:13;96389.16;;;5.77
57468;BMP280;43311;51.196;7.518;2023-12-20T19:27:39;96386.47;;;5.98
57468;BMP280;43311;51.196;7.518;2023-12-20T19:30:05;96385.72;;;5.94
57468;BMP280;43311;51.196;7.518;2023-12-20T19:32:30;96353.50;;;5.77
57468;BMP280;43311;51.196;7.518;2023-12-20T19:34:56;96377.16;;;6.00
57468;BMP280;43311;51.196;7.518;2023-12-20T19:37:22;96369.38;;;5.97
57468;BMP280;43311;51.196;7.518;2023-12-20T19:39:49;96320.78;;;5.73
57468;BMP280;43311;51.196;7.518;2023-12-20T19:42:18;96370.09;;;5.97
57468;BMP280;43311;51.196;7.518;2023-12-20T19:44:43;96353.44;;;5.88
57468;BMP280;43311;51.196;7.518;2023-12-20T19:47:09;96356.00;;;5.95
57468;BMP280;43311;51.196;7.518;2023-12-20T19:49:35;96354.53;;;5.90
57468;BMP280;43311;51.196;7.518;2023-12-20T19:52:00;96357.47;;;5.96
57468;BMP280;43311;51.196;7.518;2023-12-20T19:54:27;96348.94;;;5.99
57468;BMP280;43311;51.196;7.518;2023-12-20T19:57:05;96290.41;;;5.63
57468;BMP280;43311;51.196;7.518;2023-12-20T19:59:33;96346.28;;;6.02
57468;BMP280;43311;51.196;7.518;2023-12-20T20:01:59;96324.81;;;5.88
57468;BMP280;43311;51.196;7.518;2023-12-20T20:04:25;96322.16;;;5.98
57468;BMP280;43311;51.196;7.518;2023-12-20T20:06:53;96303.63;;;5.93
57468;BMP280;43311;51.196;7.518;2023-12-20T20:09:18;96254.31;;;5.65
57468;BMP280;43311;51.196;7.518;2023-12-20T20:11:44;96307.19;;;6.12
57468;BMP280;43311;51.196;7.518;2023-12-20T20:14:10;96295.31;;;6.05
57468;BMP280;43311;51.196;7.518;2023-12-20T20:16:37;96309.09;;;6.05
57468;BMP280;43311;51.196;7.518;2023-12-20T20:19:23;96273.91;;;5.87
57468;BMP280;43311;51.196;7.518;2023-12-20T20:21:52;96293.78;;;6.10
57468;BMP280;43311;51.196;7.518;2023-12-20T20:24:17;96293.44;;;6.12
57468;BMP280;43311;51.196;7.518;2023-12-20T20:26:42;96292.69;;;6.08
57468;BMP280;43311;51.196;7.518;2023-12-20T20:29:08;96263.06;;;5.99
57468;BMP280;43311;51.196;7.518;2023-12-20T20:31:34;96274.47;;;6.11
57468;BMP280;43311;51.196;7.518;2023-12-20T20:34:00;96282.22;;;6.18
57468;BMP280;43311;51.196;7.518;2023-12-20T20:36:25;96265.91;;;6.14
57468;BMP280;43311;51.196;7.518;2023-12-20T20:38:51;96255.19;;;6.06
57468;BMP280;43311;51.196;7.518;2023-12-20T20:41:18;96251.00;;;6.15
57468;BMP280;43311;51.196;7.518;2023-12-20T20:43:46;96246.19;;;6.13
57468;BMP280;43311;51.196;7.518;2023-12-20T20:46:12;96221.06;;;5.97
57468;BMP280;43311;51.196;7.518;2023-12-20T20:48:39;96265.47;;;6.19
57468;BMP280;43311;51.196;7.518;2023-12-20T20:51:09;96229.78;;;6.20
57468;BMP280;43311;51.196;7.518;2023-12-20T20:53:36;96201.72;;;5.98
57468;BMP280;43311;51.196;7.518;2023-12-20T20:56:02;96247.25;;;6.19
57468;BMP280;43311;51.196;7.518;2023-12-20T20:58:29;96200.25;;;5.97
57468;BMP280;43311;51.196;7.518;2023-12-20T21:00:56;96207.63;;;6.02
57468;BMP280;43311;51.196;7.518;2023-12-20T21:03:21;96198.03;;;5.95
57468;BMP280;43311;51.196;7.518;2023-12-20T21:05:47;96235.31;;;6.25
57468;BMP280;43311;51.196;7.518;2023-12-20T21:08:13;96233.03;;;6.27
57468;BMP280;43311;51.196;7.518;2023-12-20T21:10:39;96231.91;;;6.28
57468;BMP280;43311;51.196;7.518;2023-12-20T21:13:05;96231.22;;;6.24
57468;BMP280;43311;51.196;7.518;2023-12-20T21:15:35;96188.56;;;6.11
57468;BMP280;43311;51.196;7.518;2023-12-20T21:18:07;96202.66;;;6.17
57468;BMP280;43311;51.196;7.518;2023-12-20T21:20:34;96219.28;;;6.30
57468;BMP280;43311;51.196;7.518;2023-12-20T21:23:00;96212.63;;;6.22
57468;BMP280;43311;51.196;7.518;2023-12-20T21:25:28;96199.72;;;6.15
57468;BMP280;43311;51.196;7.518;2023-12-20T21:28:06;96162.72;;;5.98
57468;BMP280;43311;51.196;7.518;2023-12-20T21:30:32;96199.31;;;6.17
57468;BMP280;43311;51.196;7.518;2023-12-20T21:33:00;96214.75;;;6.34
57468;BMP280;43311;51.196;7.518;2023-12-20T21:35:30;96181.13;;;6.13
57468;BMP280;43311;51.196;7.518;2023-12-20T21:37:55;96192.53;;;6.26
57468;BMP280;43311;51.196;7.518;2023-12-20T21:40:21;96205.41;;;6.40
57468;BMP280;43311;51.196;7.518;2023-12-20T21:42:47;96196.53;;;6.34
57468;BMP280;43311;51.196;7.518;2023-12-20T21:45:16;96204.97;;;6.45
57468;BMP280;43311;51.196;7.518;2023-12-20T21:47:41;96205.78;;;6.39
57468;BMP280;43311;51.196;7.518;2023-12-20T21:50:10;96207.94;;;6.47